EFKS

Details ICAO EFKS (KAO)
Name Kuusamo
Region Finland
Timezone Europe/Helsinki (UTC+2.0)
Plans Departing 14
Arriving 13
Stats Elevation 866 ft / 264 m (AMSL)
Location 65.987404° 29.239798°
Runways 1
Magnetic Variation 12.891° E
Sunrise 2017-12-16 08:32:56 UTC / 2017-12-16 10:32:56 Local
Sunset 2017-12-16 11:27:06 UTC / 2017-12-16 13:27:06 Local
Advertisement - Login to hide

Runways

ID Width Length Bearing (true) Bearing (mag) Surface Threshold Offset Overrun Length
12 148 ft / 45 m 8,046 ft / 2,452 m 132.21° 119.32° Asphalt 131 ft / 40 m 197 ft / 60 m
30 148 ft / 45 m 8,046 ft / 2,452 m 312.25° 299.36° Asphalt 0 ft / 0 m 197 ft / 60 m

Approach Navaids

Runway Type Ident Frequency Range Bearing (true) Bearing (mag) Slope Elevation
12 Localiser KO 110.30 MHz 18 nm / 33 km 132.25° 119.36° - 866 ft / 264 m (AMSL)
12 Glidescope KO 110.30 MHz 10 nm / 19 km 132.23° 119.34° 3.00° 866 ft / 264 m (AMSL)
12 DME KO 110.30 MHz 18 nm / 33 km - - - 919 ft / 280 m (AMSL)

Map

Weather


0- 5 10 15 20 25 30 35+ Temperature / ° C

Clouds and Precipitation
Forecast for 2017-12-16 12:00 UTC. Updated 11 minutes ago

Ground ~20,000 ft ~40,000 ft Winds

METAR

EFKS 160920Z AUTO 07001KT 9999 -SHSN SKC M10/M11 Q1000

TAF

Not found

Frequencies

Tower 118.65 MHz AFIS
Tower 119.70 MHz AFIS
Warning: Do not use this data for real-world aviation or navigation. No guarantee of current accuracy is given.